createdAt,value
2022-12-08T00:01:41.987Z,26.31
2022-12-08T00:04:10.214Z,26.23
2022-12-08T00:06:57.148Z,26.15
2022-12-08T00:09:27.194Z,26.27
2022-12-08T00:11:59.069Z,26.11
2022-12-08T00:14:28.967Z,26.29
2022-12-08T00:16:56.728Z,26.35
2022-12-08T00:19:24.950Z,25.92
2022-12-08T00:21:52.942Z,25.89
2022-12-08T00:24:20.664Z,26.26
2022-12-08T00:26:48.489Z,26.04
2022-12-08T00:29:17.667Z,25.63
2022-12-08T00:31:45.289Z,26.35
2022-12-08T00:34:13.238Z,26.03
2022-12-08T00:37:05.523Z,26.44
2022-12-08T00:39:33.071Z,26.51
2022-12-08T00:42:12.421Z,26.38
2022-12-08T00:44:40.561Z,26.23
2022-12-08T00:47:07.872Z,26.34
2022-12-08T00:49:35.213Z,26.35
2022-12-08T00:52:02.546Z,26.18
2022-12-08T00:54:33.949Z,26.21
2022-12-08T00:57:01.266Z,26.17
2022-12-08T00:59:28.792Z,26.15
2022-12-08T01:01:56.163Z,26.05
2022-12-08T01:04:24.583Z,26.08
2022-12-08T01:09:35.883Z,26.27
2022-12-08T01:12:03.284Z,26.37
2022-12-08T01:14:30.845Z,26.12
2022-12-08T01:16:58.207Z,26.38
2022-12-08T01:19:25.845Z,26.18
2022-12-08T01:21:53.099Z,26.25
2022-12-08T01:24:45.717Z,26.04
2022-12-08T01:27:15.374Z,26.12
2022-12-08T01:29:42.693Z,26.37
2022-12-08T01:32:10.062Z,26.13
2022-12-08T01:34:37.639Z,26.08
2022-12-08T01:37:04.929Z,26.16
2022-12-08T01:39:32.387Z,26.20
2022-12-08T01:41:59.693Z,26.58
2022-12-08T01:44:26.996Z,26.29
2022-12-08T01:46:54.527Z,26.23
2022-12-08T01:49:27.479Z,26.30
2022-12-08T01:52:13.300Z,26.31
2022-12-08T01:54:44.198Z,26.42
2022-12-08T01:57:18.704Z,26.33
2022-12-08T01:59:48.732Z,26.28
2022-12-08T02:02:16.454Z,26.37
2022-12-08T02:04:43.943Z,26.09
2022-12-08T02:07:12.462Z,26.39
2022-12-08T02:09:40.924Z,26.17
2022-12-08T02:12:09.103Z,26.19
2022-12-08T02:14:38.634Z,26.35
2022-12-08T02:17:16.912Z,26.33
2022-12-08T02:19:47.970Z,26.35
2022-12-08T02:22:19.274Z,26.36
2022-12-08T02:25:12.784Z,26.19
2022-12-08T02:27:49.436Z,26.34
2022-12-08T02:30:30.865Z,26.32
2022-12-08T02:32:58.224Z,26.11
2022-12-08T02:35:50.822Z,26.18
2022-12-08T02:38:30.434Z,26.29
2022-12-08T02:41:16.388Z,26.16
2022-12-08T02:43:52.933Z,26.04
2022-12-08T02:46:35.760Z,26.31
2022-12-08T02:49:08.493Z,26.13
2022-12-08T02:51:35.789Z,26.18
2022-12-08T02:54:03.770Z,26.31
2022-12-08T02:56:46.642Z,26.16
2022-12-08T02:59:25.902Z,26.30
2022-12-08T03:02:02.440Z,26.11
2022-12-08T03:04:29.768Z,26.00
2022-12-08T03:07:23.077Z,26.12
2022-12-08T03:09:57.714Z,26.17
2022-12-08T03:12:44.891Z,26.12
2022-12-08T03:15:15.468Z,26.34
2022-12-08T03:17:44.819Z,26.23
2022-12-08T03:20:15.612Z,26.43
2022-12-08T03:22:44.561Z,26.32
2022-12-08T03:25:14.132Z,26.39
2022-12-08T03:27:41.668Z,26.00
2022-12-08T03:30:09.756Z,25.97
2022-12-08T03:32:47.640Z,26.30
2022-12-08T03:35:16.516Z,25.94
2022-12-08T03:37:43.913Z,25.94
2022-12-08T03:40:13.505Z,26.07
2022-12-08T03:42:41.211Z,26.11
2022-12-08T03:45:09.633Z,26.42
2022-12-08T03:47:37.151Z,26.18
2022-12-08T03:50:05.262Z,26.26
2022-12-08T03:52:32.741Z,26.05
2022-12-08T03:55:00.033Z,26.03
2022-12-08T03:57:27.412Z,25.92
2022-12-08T03:59:54.582Z,26.20
2022-12-08T04:02:22.109Z,26.17
2022-12-08T04:04:49.467Z,26.04
2022-12-08T04:07:17.089Z,26.05
2022-12-08T04:09:45.576Z,25.67
2022-12-08T04:12:12.873Z,25.91
2022-12-08T04:14:40.106Z,25.30
2022-12-08T04:17:07.490Z,25.80
2022-12-08T04:19:34.827Z,25.88
2022-12-08T04:22:02.124Z,26.00
2022-12-08T04:24:29.426Z,25.86
2022-12-08T04:26:56.807Z,26.27
2022-12-08T04:29:24.115Z,25.96
2022-12-08T04:31:51.525Z,26.17
2022-12-08T04:34:18.833Z,26.06
2022-12-08T04:36:46.216Z,25.73
2022-12-08T04:39:13.618Z,25.51
2022-12-08T04:41:41.054Z,26.01
2022-12-08T04:44:08.294Z,26.05
2022-12-08T04:46:40.246Z,26.02
2022-12-08T04:49:10.761Z,26.50
2022-12-08T04:51:37.989Z,26.30
2022-12-08T04:54:05.762Z,26.35
2022-12-08T04:56:33.176Z,26.40
2022-12-08T04:59:00.535Z,26.06
2022-12-08T05:01:27.809Z,25.47
2022-12-08T05:03:55.413Z,26.15
2022-12-08T05:06:22.720Z,26.09
2022-12-08T05:08:50.128Z,25.97
2022-12-08T05:11:17.438Z,26.54
2022-12-08T05:13:44.818Z,26.46
2022-12-08T05:16:13.667Z,26.54
2022-12-08T05:18:41.786Z,26.44
2022-12-08T05:21:10.207Z,26.09
2022-12-08T05:23:37.465Z,26.43
2022-12-08T05:26:05.015Z,26.13
2022-12-08T05:28:47.611Z,25.85
2022-12-08T05:31:15.777Z,25.79
2022-12-08T05:33:43.850Z,26.38
2022-12-08T05:36:12.735Z,26.54
2022-12-08T05:38:40.027Z,26.36
2022-12-08T05:41:07.667Z,26.07
2022-12-08T05:43:34.914Z,26.27
2022-12-08T05:46:02.429Z,26.42
2022-12-08T05:48:29.843Z,26.14
2022-12-08T05:50:57.107Z,26.58
2022-12-08T05:53:24.485Z,26.45
2022-12-08T05:55:51.749Z,26.67
2022-12-08T05:58:19.919Z,26.46
2022-12-08T06:00:47.712Z,26.27
2022-12-08T06:03:16.539Z,26.54
2022-12-08T06:05:45.076Z,26.18
2022-12-08T06:08:12.842Z,25.96
2022-12-08T06:10:41.053Z,26.28
2022-12-08T06:13:09.240Z,26.11
2022-12-08T06:15:37.272Z,26.29
2022-12-08T06:18:04.864Z,26.36
2022-12-08T06:20:32.358Z,26.36
2022-12-08T06:22:59.729Z,26.39
2022-12-08T06:25:27.119Z,25.83
2022-12-08T06:27:54.369Z,26.33
2022-12-08T06:30:21.806Z,26.38
2022-12-08T06:32:49.384Z,26.28
2022-12-08T06:35:16.770Z,26.42
2022-12-08T06:37:44.033Z,26.32
2022-12-08T06:40:11.406Z,26.65
2022-12-08T06:42:44.587Z,26.46
2022-12-08T06:45:13.037Z,26.33
2022-12-08T06:47:40.316Z,26.01
2022-12-08T06:50:08.883Z,25.91
2022-12-08T06:52:45.636Z,25.85
2022-12-08T06:55:35.515Z,25.74
2022-12-08T06:58:04.222Z,26.54
2022-12-08T07:00:31.543Z,26.31
2022-12-08T07:02:58.919Z,26.18
2022-12-08T07:05:26.285Z,26.45
2022-12-08T07:07:53.731Z,26.03
2022-12-08T07:10:20.987Z,26.20
2022-12-08T07:12:48.286Z,25.89
2022-12-08T07:15:16.358Z,26.57
2022-12-08T07:17:43.725Z,25.63
2022-12-08T07:20:11.211Z,26.11
2022-12-08T07:22:38.545Z,26.22
2022-12-08T07:25:06.100Z,26.37
2022-12-08T07:27:33.514Z,26.12
2022-12-08T07:30:00.787Z,25.75
2022-12-08T07:32:28.092Z,26.08
2022-12-08T07:34:55.607Z,26.38
2022-12-08T07:37:23.142Z,26.08
2022-12-08T07:39:50.314Z,26.38
2022-12-08T07:42:17.636Z,26.01
2022-12-08T07:44:47.209Z,26.53
2022-12-08T07:47:14.562Z,26.51
2022-12-08T07:49:41.793Z,26.67
2022-12-08T07:52:09.122Z,26.42
2022-12-08T07:54:36.502Z,26.28
2022-12-08T07:57:06.126Z,26.23
2022-12-08T07:59:33.452Z,26.36
2022-12-08T08:02:22.803Z,26.15
2022-12-08T08:04:51.360Z,26.06
2022-12-08T08:07:18.697Z,26.17
2022-12-08T08:10:11.807Z,25.99
2022-12-08T08:12:39.117Z,25.92
2022-12-08T08:15:07.972Z,26.01
2022-12-08T08:17:36.536Z,26.22
2022-12-08T08:20:07.314Z,26.52
2022-12-08T08:22:35.383Z,26.08
2022-12-08T08:25:02.747Z,26.69
2022-12-08T08:27:30.078Z,26.53
2022-12-08T08:29:57.297Z,26.36
2022-12-08T08:32:24.815Z,26.51
2022-12-08T08:34:52.184Z,26.29
2022-12-08T08:37:19.802Z,26.22
2022-12-08T08:39:47.195Z,26.41
2022-12-08T08:42:14.495Z,26.30
2022-12-08T08:44:41.787Z,26.64
2022-12-08T08:47:09.295Z,26.40
2022-12-08T08:49:36.657Z,25.46
2022-12-08T08:52:05.064Z,25.73
2022-12-08T08:54:32.330Z,26.19
2022-12-08T08:57:00.682Z,26.19
2022-12-08T08:59:28.775Z,26.21
2022-12-08T09:01:56.343Z,26.44
2022-12-08T09:04:24.170Z,26.32
2022-12-08T09:06:51.582Z,26.33
2022-12-08T09:09:18.904Z,26.52
2022-12-08T09:11:46.155Z,26.34
2022-12-08T09:14:14.894Z,26.37
2022-12-08T09:16:42.851Z,26.60
2022-12-08T09:19:10.104Z,26.29
2022-12-08T09:21:37.416Z,26.08
2022-12-08T09:24:04.877Z,26.10
2022-12-08T09:26:33.419Z,26.05
2022-12-08T09:29:00.823Z,26.18
2022-12-08T09:31:28.313Z,26.25
2022-12-08T09:33:55.675Z,26.38
2022-12-08T09:36:23.141Z,26.19
2022-12-08T09:38:53.680Z,26.20
2022-12-08T09:41:44.798Z,26.42
2022-12-08T09:44:19.163Z,26.20
2022-12-08T09:46:50.681Z,26.19
2022-12-08T09:49:20.570Z,26.23
2022-12-08T09:51:48.186Z,26.31
2022-12-08T09:54:15.492Z,26.16
2022-12-08T09:56:42.868Z,26.33
2022-12-08T09:59:24.149Z,26.27
2022-12-08T10:01:51.709Z,26.28
2022-12-08T10:04:24.806Z,26.22
2022-12-08T10:06:56.440Z,26.10
2022-12-08T10:09:32.651Z,26.45
2022-12-08T10:12:18.983Z,26.28
2022-12-08T10:14:49.995Z,26.12
2022-12-08T10:17:21.163Z,26.18
2022-12-08T10:19:49.591Z,26.29
2022-12-08T10:22:24.819Z,26.03
2022-12-08T10:24:56.018Z,26.03
2022-12-08T10:27:23.690Z,26.18
2022-12-08T10:29:50.970Z,26.08
2022-12-08T10:32:20.417Z,26.03
2022-12-08T10:35:07.908Z,26.21
2022-12-08T10:37:35.676Z,26.21
2022-12-08T10:40:09.236Z,26.11
2022-12-08T10:42:38.971Z,26.19
2022-12-08T10:45:09.707Z,26.14
2022-12-08T10:47:38.344Z,26.10
2022-12-08T10:50:22.741Z,25.90
2022-12-08T10:53:08.285Z,26.21
2022-12-08T10:55:44.337Z,26.15
2022-12-08T10:58:24.074Z,26.27
2022-12-08T11:00:55.958Z,26.21
2022-12-08T11:03:43.613Z,26.36
2022-12-08T11:06:14.824Z,26.38
2022-12-08T11:09:01.768Z,26.23
2022-12-08T11:11:54.759Z,26.23
2022-12-08T11:14:32.677Z,26.33
2022-12-08T11:17:20.011Z,26.27
2022-12-08T11:20:01.047Z,26.30
2022-12-08T11:22:37.905Z,26.21
2022-12-08T11:25:08.050Z,26.44
2022-12-08T11:27:36.864Z,26.31
2022-12-08T11:30:12.615Z,26.31
2022-12-08T11:33:06.498Z,26.01
2022-12-08T11:35:35.557Z,26.04
2022-12-08T11:38:20.538Z,26.08
2022-12-08T11:41:15.829Z,26.35
2022-12-08T11:43:56.133Z,26.39
2022-12-08T11:46:32.263Z,26.28
2022-12-08T11:49:06.438Z,26.12
2022-12-08T11:51:39.653Z,26.29
2022-12-08T11:54:11.512Z,26.08
2022-12-08T11:57:05.193Z,26.35
2022-12-08T11:59:34.811Z,26.05
2022-12-08T12:02:03.054Z,26.06
2022-12-08T12:04:33.564Z,26.07
2022-12-08T12:07:26.499Z,26.10
2022-12-08T12:10:09.378Z,25.95
2022-12-08T12:12:51.960Z,25.87
2022-12-08T12:15:22.028Z,25.99
2022-12-08T12:17:52.044Z,25.97
2022-12-08T12:20:25.346Z,26.10
2022-12-08T12:22:56.815Z,26.33
2022-12-08T12:25:25.899Z,26.11
2022-12-08T12:27:57.897Z,26.30
2022-12-08T12:30:26.698Z,25.96
2022-12-08T12:32:57.045Z,26.25
2022-12-08T12:35:38.493Z,26.28
2022-12-08T12:38:27.959Z,26.28
2022-12-08T12:41:00.437Z,26.21
2022-12-08T12:43:32.697Z,26.37
2022-12-08T12:46:18.417Z,26.40
2022-12-08T12:48:45.842Z,26.51
2022-12-08T12:51:32.115Z,26.06
2022-12-08T12:54:19.373Z,26.22
2022-12-08T12:56:48.407Z,25.81
2022-12-08T12:59:44.505Z,26.26
2022-12-08T13:02:20.521Z,26.27
2022-12-08T13:04:57.076Z,26.34
2022-12-08T13:07:26.822Z,26.37
2022-12-08T13:10:11.229Z,26.51
2022-12-08T13:12:38.702Z,26.47
2022-12-08T13:15:07.147Z,26.53
2022-12-08T13:17:37.044Z,26.43
2022-12-08T13:20:06.589Z,26.45
2022-12-08T13:22:52.767Z,26.31
2022-12-08T13:25:39.059Z,26.35
2022-12-08T13:28:15.546Z,26.30
2022-12-08T13:30:45.763Z,26.30
2022-12-08T13:33:19.096Z,26.30
2022-12-08T13:36:09.962Z,26.37
2022-12-08T13:38:38.830Z,26.37
2022-12-08T13:41:13.746Z,26.31
2022-12-08T13:43:57.795Z,26.27
2022-12-08T13:58:50.010Z,26.57
2022-12-08T14:01:20.201Z,26.42
2022-12-08T14:04:20.487Z,26.42
2022-12-08T14:06:39.198Z,26.53
2022-12-08T14:09:11.217Z,26.67
2022-12-08T14:11:44.743Z,26.64
2022-12-08T14:14:27.227Z,26.54
2022-12-08T14:17:10.017Z,26.46
2022-12-08T14:19:37.541Z,26.13
2022-12-08T14:22:11.976Z,26.17
2022-12-08T14:24:40.596Z,26.41
2022-12-08T14:27:10.954Z,26.42
2022-12-08T14:29:55.418Z,26.32
2022-12-08T14:32:24.733Z,26.65
2022-12-08T14:35:11.767Z,26.41
2022-12-08T14:37:43.292Z,26.46
2022-12-08T14:40:22.984Z,26.39
2022-12-08T14:43:05.169Z,26.46
2022-12-08T14:45:35.338Z,26.29
2022-12-08T14:48:20.942Z,26.07
2022-12-08T14:50:57.159Z,26.19
2022-12-08T14:53:25.118Z,26.23
2022-12-08T14:55:52.517Z,26.23
2022-12-08T14:58:27.924Z,26.43
2022-12-08T15:00:58.537Z,26.28
2022-12-08T15:03:30.314Z,26.39
2022-12-08T15:06:04.905Z,26.23
2022-12-08T15:08:32.356Z,26.28
2022-12-08T15:11:25.051Z,26.18
2022-12-08T15:13:53.107Z,26.08
2022-12-08T15:16:27.158Z,26.22
2022-12-08T15:19:16.276Z,26.27
2022-12-08T15:22:09.828Z,26.11
2022-12-08T15:24:40.291Z,26.28
2022-12-08T15:27:07.643Z,26.30
2022-12-08T15:29:35.024Z,26.17
2022-12-08T15:32:02.686Z,26.29
2022-12-08T15:34:31.651Z,26.31
2022-12-08T15:36:59.005Z,26.46
2022-12-08T15:39:33.200Z,26.68
2022-12-08T15:42:01.409Z,26.35
2022-12-08T15:44:32.997Z,26.42
2022-12-08T15:47:00.548Z,26.37
2022-12-08T15:49:27.999Z,26.43
2022-12-08T15:52:04.957Z,26.41
2022-12-08T15:54:37.835Z,26.52
2022-12-08T15:57:25.043Z,26.26
2022-12-08T15:59:52.928Z,26.44
2022-12-08T16:02:22.896Z,26.29
2022-12-08T16:07:38.504Z,26.46
2022-12-08T16:10:07.490Z,26.18
2022-12-08T16:15:59.025Z,26.44
2022-12-08T16:18:31.768Z,26.38
2022-12-08T16:23:46.632Z,26.59
2022-12-08T16:29:06.600Z,26.28
2022-12-08T16:31:33.992Z,26.47
2022-12-08T16:34:01.468Z,26.69
2022-12-08T16:36:28.752Z,26.76
2022-12-08T16:38:56.144Z,26.48
2022-12-08T16:41:41.724Z,26.66
2022-12-08T16:44:09.135Z,26.51
2022-12-08T16:46:37.172Z,26.38
2022-12-08T16:49:07.838Z,26.56
2022-12-08T16:51:35.280Z,26.62
2022-12-08T16:54:02.560Z,26.56
2022-12-08T16:56:33.376Z,26.17
2022-12-08T16:59:02.140Z,26.56
2022-12-08T17:01:29.993Z,26.50
2022-12-08T17:06:45.090Z,26.68
2022-12-08T17:09:12.390Z,26.74
2022-12-08T17:11:43.428Z,26.65
2022-12-08T17:14:12.031Z,26.74
2022-12-08T17:16:39.540Z,26.68
2022-12-08T17:19:06.926Z,26.50
2022-12-08T17:21:34.184Z,26.59
2022-12-08T17:24:01.741Z,26.89
2022-12-08T17:26:29.009Z,26.65
2022-12-08T17:29:01.018Z,26.60
2022-12-08T17:31:31.522Z,26.55
2022-12-08T17:34:03.305Z,26.74
2022-12-08T17:36:30.685Z,26.60
2022-12-08T17:38:59.156Z,26.46
2022-12-08T17:41:26.560Z,26.58
2022-12-08T17:43:53.859Z,26.43
2022-12-08T17:46:21.859Z,26.57
2022-12-08T17:48:49.425Z,26.52
2022-12-08T17:51:17.311Z,26.50
2022-12-08T17:53:44.741Z,26.54
2022-12-08T17:56:17.925Z,26.52
2022-12-08T17:58:47.549Z,26.64
2022-12-08T18:01:18.817Z,26.56
2022-12-08T18:03:46.134Z,27.03
2022-12-08T18:06:13.599Z,26.75
2022-12-08T18:08:41.227Z,26.67
2022-12-08T18:11:13.535Z,26.71
2022-12-08T18:13:41.124Z,26.60
2022-12-08T18:16:08.457Z,26.52
2022-12-08T18:18:35.744Z,26.83
2022-12-08T18:21:03.019Z,27.16
2022-12-08T18:23:55.660Z,26.91
2022-12-08T18:26:23.263Z,26.73
2022-12-08T18:28:50.639Z,26.58
2022-12-08T18:31:19.933Z,26.39
2022-12-08T18:33:47.833Z,26.14
2022-12-08T18:36:16.673Z,26.22
2022-12-08T18:38:44.114Z,26.36
2022-12-08T18:41:13.070Z,25.72
2022-12-08T18:43:40.786Z,26.47
2022-12-08T18:46:09.785Z,26.67
2022-12-08T18:48:38.489Z,27.01
2022-12-08T18:51:10.618Z,26.39
2022-12-08T18:53:38.868Z,26.79
2022-12-08T18:56:07.023Z,26.98
2022-12-08T18:58:34.471Z,26.60
2022-12-08T19:01:01.857Z,26.94
2022-12-08T19:03:29.496Z,26.80
2022-12-08T19:06:04.142Z,27.16
2022-12-08T19:08:31.915Z,26.93
2022-12-08T19:10:59.580Z,26.70
2022-12-08T19:13:27.477Z,26.97
2022-12-08T19:15:54.779Z,26.91
2022-12-08T19:18:22.557Z,26.85
2022-12-08T19:20:50.025Z,26.98
2022-12-08T19:23:17.390Z,26.56
2022-12-08T19:25:44.663Z,26.85
2022-12-08T19:28:12.131Z,26.88
2022-12-08T19:30:39.532Z,26.69
2022-12-08T19:33:06.991Z,27.23
2022-12-08T19:35:34.283Z,27.09
2022-12-08T19:38:01.651Z,27.05
2022-12-08T19:40:47.674Z,26.94
2022-12-08T19:43:37.910Z,26.94
2022-12-08T19:46:05.486Z,26.87
2022-12-08T19:48:32.806Z,27.12
2022-12-08T19:51:00.267Z,26.71
2022-12-08T19:53:27.721Z,27.18
2022-12-08T19:55:55.201Z,27.20
2022-12-08T19:58:22.463Z,27.21
2022-12-08T20:01:15.904Z,27.05
2022-12-08T20:03:43.313Z,27.27
2022-12-08T20:06:36.427Z,27.05
2022-12-08T20:09:03.885Z,26.89
2022-12-08T20:11:31.113Z,26.93
2022-12-08T20:14:00.421Z,27.13
2022-12-08T20:16:27.814Z,26.95
2022-12-08T20:18:55.122Z,26.80
2022-12-08T20:21:22.546Z,26.98
2022-12-08T20:23:49.992Z,27.29
2022-12-08T20:26:18.903Z,26.97
2022-12-08T20:28:46.308Z,26.96
2022-12-08T20:31:20.827Z,27.11
2022-12-08T20:33:48.846Z,27.12
2022-12-08T20:36:19.984Z,26.58
2022-12-08T20:38:48.259Z,26.91
2022-12-08T20:41:16.224Z,27.22
2022-12-08T20:43:44.553Z,26.65
2022-12-08T20:46:13.311Z,27.11
2022-12-08T20:48:41.017Z,27.23
2022-12-08T20:51:08.691Z,27.07
2022-12-08T20:53:36.295Z,27.23
2022-12-08T20:56:28.832Z,26.99
2022-12-08T20:58:56.316Z,27.15
2022-12-08T21:01:39.280Z,26.85
2022-12-08T21:04:06.887Z,27.22
2022-12-08T21:06:34.465Z,26.91
2022-12-08T21:09:01.880Z,26.85
2022-12-08T21:11:29.513Z,27.03
2022-12-08T21:13:57.018Z,26.99
2022-12-08T21:16:24.313Z,26.88
2022-12-08T21:18:51.971Z,27.19
2022-12-08T21:21:19.392Z,26.78
2022-12-08T21:23:46.941Z,27.08
2022-12-08T21:26:21.713Z,27.32
2022-12-08T21:28:49.190Z,27.28
2022-12-08T21:31:19.116Z,26.63
2022-12-08T21:33:46.784Z,26.92
2022-12-08T21:36:16.199Z,27.23
2022-12-08T21:38:44.011Z,27.56
2022-12-08T21:41:13.550Z,27.38
2022-12-08T21:43:41.450Z,27.44
2022-12-08T21:46:16.834Z,27.39
2022-12-08T21:48:44.648Z,27.25
2022-12-08T21:51:12.924Z,27.07
2022-12-08T21:53:40.473Z,27.25
2022-12-08T21:56:08.777Z,27.15
2022-12-08T21:58:36.339Z,26.80
2022-12-08T22:01:07.397Z,26.96
2022-12-08T22:03:35.137Z,27.18
2022-12-08T22:06:10.148Z,27.31
2022-12-08T22:08:37.877Z,26.91
2022-12-08T22:11:05.593Z,27.05
2022-12-08T22:13:34.308Z,27.06
2022-12-08T22:16:03.606Z,27.05
2022-12-08T22:18:31.349Z,26.86
2022-12-08T22:20:58.835Z,26.76
2022-12-08T22:23:26.481Z,27.20
2022-12-08T22:26:00.490Z,26.68
2022-12-08T22:28:30.091Z,27.07
2022-12-08T22:30:57.467Z,26.98
2022-12-08T22:33:24.832Z,26.95
2022-12-08T22:36:04.705Z,26.83
2022-12-08T22:38:35.678Z,26.66
2022-12-08T22:41:04.891Z,26.95
2022-12-08T22:43:33.040Z,26.88
2022-12-08T22:46:00.755Z,26.77
2022-12-08T22:48:28.207Z,26.98
2022-12-08T22:51:02.070Z,26.97
2022-12-08T22:53:29.483Z,26.82
2022-12-08T22:55:56.891Z,26.92
2022-12-08T22:58:24.331Z,26.79
2022-12-08T23:00:52.173Z,26.63
2022-12-08T23:03:19.669Z,26.70
2022-12-08T23:05:47.257Z,27.02
2022-12-08T23:08:16.512Z,26.72
2022-12-08T23:10:44.731Z,26.75
2022-12-08T23:13:18.162Z,26.74
2022-12-08T23:15:45.652Z,26.71
2022-12-08T23:18:15.829Z,26.69
2022-12-08T23:20:43.240Z,26.81
2022-12-08T23:23:10.562Z,26.73
2022-12-08T23:25:41.679Z,26.84
2022-12-08T23:28:09.821Z,26.92
2022-12-08T23:30:40.004Z,26.85
2022-12-08T23:33:07.478Z,26.84
2022-12-08T23:35:34.924Z,26.55
2022-12-08T23:38:02.500Z,26.68
2022-12-08T23:40:29.954Z,27.03
2022-12-08T23:42:57.738Z,26.45
2022-12-08T23:45:25.180Z,26.23
2022-12-08T23:47:52.708Z,26.30
2022-12-08T23:50:20.189Z,27.11
2022-12-08T23:52:47.754Z,26.83
2022-12-08T23:55:15.114Z,26.98
2022-12-08T23:57:42.517Z,27.18
